createdAt,value
2018-08-04T00:02:05.812Z,29.50
2018-08-04T00:04:33.935Z,29.70
2018-08-04T00:07:02.096Z,29.70
2018-08-04T00:09:30.236Z,30.00
2018-08-04T00:11:58.494Z,30.10
2018-08-04T00:14:26.778Z,30.30
2018-08-04T00:16:54.942Z,30.40
2018-08-04T00:19:23.200Z,30.50
2018-08-04T00:21:51.390Z,30.80
2018-08-04T00:24:19.704Z,31.00
2018-08-04T00:26:48.229Z,31.20
2018-08-04T00:29:16.416Z,31.40
2018-08-04T00:31:44.589Z,31.40
2018-08-04T00:34:12.754Z,31.80
2018-08-04T00:36:40.921Z,32.00
2018-08-04T00:39:09.088Z,32.20
2018-08-04T00:41:37.280Z,32.20
2018-08-04T00:44:05.453Z,32.20
2018-08-04T00:46:33.613Z,32.50
2018-08-04T00:49:01.781Z,32.60
2018-08-04T00:51:30.077Z,32.70
2018-08-04T00:53:58.237Z,32.90
2018-08-04T00:56:26.393Z,33.10
2018-08-04T00:58:54.811Z,33.20
2018-08-04T01:01:23.412Z,33.20
2018-08-04T01:03:51.589Z,33.40
2018-08-04T01:06:19.773Z,33.70
2018-08-04T01:08:47.946Z,34.00
2018-08-04T01:11:16.144Z,34.10
2018-08-04T01:13:44.373Z,34.20
2018-08-04T01:16:12.534Z,34.50
2018-08-04T01:18:40.724Z,34.60
2018-08-04T01:21:08.872Z,34.90
2018-08-04T01:23:37.033Z,35.20
2018-08-04T01:26:05.305Z,35.30
2018-08-04T01:28:33.457Z,35.50
2018-08-04T01:31:01.640Z,35.70
2018-08-04T01:33:29.796Z,36.10
2018-08-04T01:35:57.952Z,36.60
2018-08-04T01:38:26.140Z,36.70
2018-08-04T01:40:54.310Z,36.50
2018-08-04T01:43:22.465Z,36.60
2018-08-04T01:45:50.630Z,37.10
2018-08-04T01:48:19.773Z,37.50
2018-08-04T01:50:47.978Z,38.10
2018-08-04T01:53:16.135Z,38.30
2018-08-04T01:55:44.280Z,38.30
2018-08-04T01:58:12.452Z,38.40
2018-08-04T02:00:40.604Z,38.60
2018-08-04T02:03:08.762Z,38.80
2018-08-04T02:05:36.944Z,38.90
2018-08-04T02:08:05.256Z,39.10
2018-08-04T02:10:33.439Z,39.40
2018-08-04T02:13:01.576Z,39.70
2018-08-04T02:15:29.782Z,39.90
2018-08-04T02:17:57.957Z,40.30
2018-08-04T02:20:26.109Z,40.70
2018-08-04T02:22:54.316Z,41.10
2018-08-04T02:25:22.510Z,41.30
2018-08-04T02:27:50.643Z,41.30
2018-08-04T02:30:18.833Z,41.40
2018-08-04T02:32:46.987Z,41.30
2018-08-04T02:35:15.135Z,41.80
2018-08-04T02:37:43.266Z,42.20
2018-08-04T02:40:11.435Z,42.40
2018-08-04T02:42:39.573Z,42.80
2018-08-04T02:45:08.226Z,42.90
2018-08-04T02:47:36.565Z,43.00
2018-08-04T02:50:05.308Z,43.40
2018-08-04T02:52:33.564Z,43.60
2018-08-04T02:55:01.703Z,44.00
2018-08-04T02:57:29.952Z,44.00
2018-08-04T02:59:58.104Z,44.20
2018-08-04T03:02:26.233Z,44.40
2018-08-04T03:04:54.396Z,44.50
2018-08-04T03:07:22.645Z,44.40
2018-08-04T03:09:50.847Z,44.40
2018-08-04T03:12:19.001Z,44.50
2018-08-04T03:14:47.185Z,44.20
2018-08-04T03:17:15.377Z,44.20
2018-08-04T03:19:43.529Z,44.30
2018-08-04T03:22:11.760Z,44.20
2018-08-04T03:24:39.924Z,44.20
2018-08-04T03:27:08.128Z,44.20
2018-08-04T03:29:36.378Z,44.20
2018-08-04T03:32:04.505Z,44.20
2018-08-04T03:34:33.017Z,44.10
2018-08-04T03:37:01.226Z,44.00
2018-08-04T03:39:29.373Z,44.20
2018-08-04T03:41:57.504Z,44.60
2018-08-04T03:44:25.675Z,44.50
2018-08-04T03:46:53.839Z,44.60
2018-08-04T03:49:22.012Z,44.60
2018-08-04T03:51:50.166Z,44.60
2018-08-04T03:54:18.357Z,44.60
2018-08-04T03:56:46.518Z,44.50
2018-08-04T03:59:14.669Z,44.50
2018-08-04T04:01:42.859Z,44.40
2018-08-04T04:04:11.121Z,44.60
2018-08-04T04:09:08.884Z,44.50
2018-08-04T04:11:37.264Z,44.70
2018-08-04T04:16:33.469Z,44.60
2018-08-04T04:19:01.647Z,44.90
2018-08-04T04:21:29.812Z,44.50
2018-08-04T04:23:57.992Z,44.30
2018-08-04T04:26:26.169Z,44.20
2018-08-04T04:28:54.313Z,44.00
2018-08-04T04:31:22.598Z,43.70
2018-08-04T04:33:50.757Z,43.60
2018-08-04T04:36:18.955Z,43.60
2018-08-04T04:38:47.191Z,43.60
2018-08-04T04:41:15.365Z,43.50
2018-08-04T04:43:43.530Z,43.30
2018-08-04T04:46:11.747Z,43.30
2018-08-04T04:48:39.901Z,43.10
2018-08-04T04:51:08.061Z,42.90
2018-08-04T04:53:36.270Z,42.80
2018-08-04T04:56:04.429Z,42.70
2018-08-04T04:58:33.352Z,41.90
2018-08-04T05:01:01.553Z,41.30
2018-08-04T05:03:29.692Z,41.10
2018-08-04T05:05:57.879Z,40.60
2018-08-04T05:08:26.131Z,40.30
2018-08-04T05:10:54.426Z,39.90
2018-08-04T05:13:22.650Z,40.00
2018-08-04T05:15:50.763Z,40.00
2018-08-04T05:18:20.046Z,39.90
2018-08-04T05:20:48.233Z,40.30
2018-08-04T05:23:17.093Z,40.10
2018-08-04T05:25:45.304Z,40.60
2018-08-04T05:28:13.458Z,40.90
2018-08-04T05:30:41.802Z,41.80
2018-08-04T05:33:10.091Z,43.00
2018-08-04T05:35:38.271Z,43.10
2018-08-04T05:38:06.439Z,43.50
2018-08-04T05:40:34.615Z,43.10
2018-08-04T05:43:02.747Z,43.50
2018-08-04T05:45:30.922Z,43.10
2018-08-04T05:47:59.104Z,42.60
2018-08-04T05:50:28.779Z,42.30
2018-08-04T05:52:56.930Z,41.50
2018-08-04T05:55:25.089Z,41.60
2018-08-04T05:57:53.294Z,41.00
2018-08-04T06:00:21.837Z,41.00
2018-08-04T06:02:50.039Z,40.90
2018-08-04T06:05:18.189Z,40.90
2018-08-04T06:07:46.388Z,39.50
2018-08-04T06:10:14.685Z,39.70
2018-08-04T06:12:42.836Z,40.60
2018-08-04T06:15:12.156Z,40.50
2018-08-04T06:17:40.289Z,40.00
2018-08-04T06:20:08.677Z,41.00
2018-08-04T06:22:36.885Z,42.00
2018-08-04T06:25:05.174Z,42.30
2018-08-04T06:27:33.521Z,42.00
2018-08-04T06:30:01.669Z,42.30
2018-08-04T06:32:29.897Z,42.00
2018-08-04T06:34:58.256Z,42.20
2018-08-04T06:37:26.444Z,41.50
2018-08-04T06:39:54.793Z,41.60
2018-08-04T06:42:22.964Z,41.20
2018-08-04T06:44:51.704Z,41.00
2018-08-04T06:47:19.961Z,41.00
2018-08-04T06:49:48.355Z,40.50
2018-08-04T06:52:17.029Z,40.20
2018-08-04T06:54:45.222Z,39.70
2018-08-04T06:57:13.365Z,38.70
2018-08-04T06:59:41.814Z,38.20
2018-08-04T07:02:10.082Z,38.50
2018-08-04T07:04:39.268Z,38.60
2018-08-04T07:07:07.837Z,38.00
2018-08-04T07:09:35.974Z,37.60
2018-08-04T07:12:04.400Z,38.20
2018-08-04T07:14:32.548Z,37.90
2018-08-04T07:17:01.132Z,36.70
2018-08-04T07:19:29.570Z,36.20
2018-08-04T07:21:57.809Z,35.80
2018-08-04T07:24:26.039Z,36.80
2018-08-04T07:26:54.184Z,36.50
2018-08-04T07:29:22.372Z,36.60
2018-08-04T07:31:50.572Z,36.60
2018-08-04T07:34:18.766Z,36.40
2018-08-04T07:36:46.850Z,36.60
2018-08-04T07:39:15.024Z,36.60
2018-08-04T07:41:43.187Z,36.20
2018-08-04T07:44:11.333Z,36.30
2018-08-04T07:46:39.709Z,35.50
2018-08-04T07:49:08.171Z,35.10
2018-08-04T07:51:36.253Z,34.50
2018-08-04T07:54:04.700Z,34.30
2018-08-04T07:56:32.857Z,34.60
2018-08-04T07:59:01.000Z,34.30
2018-08-04T08:01:29.184Z,33.30
2018-08-04T08:03:57.353Z,32.90
2018-08-04T08:06:25.565Z,33.10
2018-08-04T08:08:53.796Z,32.30
2018-08-04T08:11:22.083Z,32.20
2018-08-04T08:13:50.938Z,32.10
2018-08-04T08:16:19.088Z,32.20
2018-08-04T08:18:47.280Z,32.10
2018-08-04T08:21:15.446Z,32.00
2018-08-04T08:23:43.598Z,30.70
2018-08-04T08:26:14.293Z,30.60
2018-08-04T08:28:43.080Z,30.80
2018-08-04T08:31:11.276Z,29.50
2018-08-04T08:33:41.017Z,29.80
2018-08-04T08:36:09.924Z,29.70
2018-08-04T08:38:38.134Z,29.30
2018-08-04T08:41:06.329Z,28.40
2018-08-04T08:43:34.943Z,28.70
2018-08-04T08:46:03.158Z,28.40
2018-08-04T08:48:32.088Z,27.90
2018-08-04T08:51:00.270Z,27.90
2018-08-04T08:53:28.582Z,27.10
2018-08-04T08:55:57.101Z,27.00
2018-08-04T08:58:25.330Z,26.50
2018-08-04T09:00:53.486Z,26.10
2018-08-04T09:03:22.479Z,25.50
2018-08-04T09:05:50.697Z,25.40
2018-08-04T09:08:18.932Z,25.60
2018-08-04T09:10:47.144Z,24.90
2018-08-04T09:13:15.320Z,24.60
2018-08-04T09:15:43.529Z,24.20
2018-08-04T09:18:11.689Z,24.20
2018-08-04T09:20:41.036Z,23.90
2018-08-04T09:23:09.210Z,24.30
2018-08-04T09:25:37.348Z,23.90
2018-08-04T09:28:06.216Z,24.00
2018-08-04T09:30:34.440Z,23.10
2018-08-04T09:33:02.605Z,23.10
2018-08-04T09:35:30.756Z,22.50
2018-08-04T09:37:58.924Z,22.30
2018-08-04T09:40:27.112Z,22.10
2018-08-04T09:42:55.277Z,21.90
2018-08-04T09:45:23.432Z,21.90
2018-08-04T09:47:51.748Z,21.30
2018-08-04T09:50:20.124Z,21.30
2018-08-04T09:52:48.305Z,21.40
2018-08-04T09:55:16.473Z,20.60
2018-08-04T09:57:44.629Z,20.80
2018-08-04T10:00:18.667Z,20.30
2018-08-04T10:02:48.092Z,20.50
2018-08-04T10:05:16.319Z,20.30
2018-08-04T10:07:44.458Z,20.20
2018-08-04T10:10:13.099Z,19.80
2018-08-04T10:12:41.259Z,20.10
2018-08-04T10:15:10.447Z,19.80
2018-08-04T10:17:38.999Z,19.60
2018-08-04T10:20:08.616Z,19.50
2018-08-04T10:22:36.879Z,19.30
2018-08-04T10:25:05.353Z,19.30
2018-08-04T10:27:33.567Z,19.00
2018-08-04T10:30:01.788Z,19.20
2018-08-04T10:32:30.378Z,18.30
2018-08-04T10:35:00.380Z,18.40
2018-08-04T10:37:28.835Z,18.00
2018-08-04T10:39:56.989Z,18.00
2018-08-04T10:42:25.335Z,18.00
2018-08-04T10:44:53.524Z,17.60
2018-08-04T10:47:21.685Z,17.40
2018-08-04T10:49:49.858Z,17.40
2018-08-04T10:52:18.090Z,17.30
2018-08-04T10:54:46.178Z,16.70
2018-08-04T10:57:14.353Z,16.20
2018-08-04T10:59:42.524Z,16.00
2018-08-04T11:02:10.789Z,16.40
2018-08-04T11:04:38.991Z,16.60
2018-08-04T11:07:07.516Z,16.70
2018-08-04T11:09:35.712Z,16.50
2018-08-04T11:12:03.926Z,16.70
2018-08-04T11:14:32.073Z,16.70
2018-08-04T11:17:00.601Z,16.40
2018-08-04T11:19:28.900Z,16.40
2018-08-04T11:21:57.051Z,16.60
2018-08-04T11:24:25.222Z,16.80
2018-08-04T11:26:53.441Z,16.90
2018-08-04T11:29:21.572Z,16.00
2018-08-04T11:31:49.769Z,16.30
2018-08-04T11:34:17.918Z,16.30
2018-08-04T11:36:46.141Z,16.20
2018-08-04T11:39:14.638Z,16.50
2018-08-04T11:41:42.783Z,16.60
2018-08-04T11:44:11.012Z,16.40
2018-08-04T11:46:39.166Z,16.30
2018-08-04T11:49:07.508Z,16.00
2018-08-04T11:51:35.714Z,16.40
2018-08-04T11:54:03.968Z,16.30
2018-08-04T11:56:32.108Z,15.90
2018-08-04T11:59:00.322Z,15.90
2018-08-04T12:01:28.491Z,16.00
2018-08-04T12:03:56.650Z,15.90
2018-08-04T12:06:24.957Z,15.70
2018-08-04T12:08:53.113Z,15.50
2018-08-04T12:11:21.279Z,15.50
2018-08-04T12:13:49.412Z,15.00
2018-08-04T12:16:18.263Z,14.20
2018-08-04T12:18:46.427Z,15.10
2018-08-04T12:21:14.601Z,14.90
2018-08-04T12:23:42.783Z,15.20
2018-08-04T12:26:10.931Z,14.90
2018-08-04T12:28:39.290Z,14.70
2018-08-04T12:31:07.636Z,14.70
2018-08-04T12:33:35.776Z,15.00
2018-08-04T12:36:04.303Z,14.60
2018-08-04T12:38:32.493Z,14.50
2018-08-04T12:41:00.621Z,14.20
2018-08-04T12:43:28.906Z,14.20
2018-08-04T12:45:57.275Z,14.10
2018-08-04T12:48:28.516Z,14.50
2018-08-04T12:50:57.325Z,14.40
2018-08-04T12:53:26.056Z,14.40
2018-08-04T12:55:54.218Z,14.30
2018-08-04T12:58:22.352Z,13.80
2018-08-04T13:00:50.925Z,13.30
2018-08-04T13:03:19.274Z,13.00
2018-08-04T13:05:47.392Z,13.00
2018-08-04T13:08:17.260Z,12.90
2018-08-04T13:10:45.712Z,13.00
2018-08-04T13:13:13.934Z,13.00
2018-08-04T13:15:42.097Z,13.10
2018-08-04T13:18:10.392Z,12.70
2018-08-04T13:20:38.581Z,11.50
2018-08-04T13:23:07.129Z,12.20
2018-08-04T13:25:35.280Z,12.50
2018-08-04T13:28:03.454Z,12.70
2018-08-04T13:30:31.708Z,12.30
2018-08-04T13:32:59.934Z,12.50
2018-08-04T13:35:28.218Z,12.50
2018-08-04T13:37:56.430Z,12.70
2018-08-04T13:40:24.696Z,12.70
2018-08-04T13:42:52.986Z,12.50
2018-08-04T13:45:21.109Z,12.60
2018-08-04T13:47:49.272Z,12.50
2018-08-04T13:50:17.468Z,12.00
2018-08-04T13:52:45.581Z,12.00
2018-08-04T13:55:14.809Z,11.80
2018-08-04T13:57:42.977Z,11.50
2018-08-04T14:00:12.955Z,11.90
2018-08-04T14:02:41.158Z,12.10
2018-08-04T14:05:09.321Z,11.80
2018-08-04T14:07:37.483Z,11.60
2018-08-04T14:10:05.649Z,11.60
2018-08-04T14:12:34.624Z,11.40
2018-08-04T14:15:03.641Z,11.60
2018-08-04T14:17:31.854Z,11.30
2018-08-04T14:20:00.394Z,11.30
2018-08-04T14:22:28.592Z,11.40
2018-08-04T14:24:56.828Z,11.20
2018-08-04T14:27:24.985Z,10.90
2018-08-04T14:29:53.150Z,11.20
2018-08-04T14:32:21.381Z,11.00
2018-08-04T14:34:49.578Z,10.80
2018-08-04T14:37:17.697Z,10.70
2018-08-04T14:39:45.864Z,10.70
2018-08-04T14:42:13.999Z,11.50
2018-08-04T14:44:42.857Z,11.30
2018-08-04T14:47:11.084Z,11.60
2018-08-04T14:49:39.455Z,11.00
2018-08-04T14:52:07.592Z,11.50
2018-08-04T14:54:35.751Z,11.70
2018-08-04T14:57:04.750Z,11.70
2018-08-04T14:59:32.914Z,11.60
2018-08-04T15:02:01.081Z,11.50
2018-08-04T15:04:29.281Z,11.50
2018-08-04T15:06:57.388Z,11.70
2018-08-04T15:09:26.044Z,11.60
2018-08-04T15:11:54.436Z,11.30
2018-08-04T15:14:22.565Z,11.70
2018-08-04T15:16:50.704Z,11.60
2018-08-04T15:19:19.137Z,11.50
2018-08-04T15:21:47.565Z,11.90
2018-08-04T15:26:43.741Z,12.40
2018-08-04T15:29:11.909Z,11.90
2018-08-04T15:31:40.060Z,11.90
2018-08-04T15:34:08.390Z,11.50
2018-08-04T15:36:36.577Z,11.30
2018-08-04T15:39:07.303Z,11.10
2018-08-04T15:41:35.692Z,11.40
2018-08-04T15:44:03.860Z,11.70
2018-08-04T15:46:32.072Z,11.50
2018-08-04T15:51:28.196Z,12.50
2018-08-04T15:53:56.591Z,12.80
2018-08-04T15:56:24.968Z,11.90
2018-08-04T15:58:53.215Z,12.00
2018-08-04T16:01:22.196Z,12.30
2018-08-04T16:03:50.378Z,12.50
2018-08-04T16:06:18.516Z,12.40
2018-08-04T16:08:46.895Z,12.20
2018-08-04T16:11:15.133Z,12.70
2018-08-04T16:13:43.273Z,12.80
2018-08-04T16:16:11.444Z,13.50
2018-08-04T16:18:39.620Z,13.80
2018-08-04T16:21:08.456Z,12.40
2018-08-04T16:23:37.622Z,12.00
2018-08-04T16:26:05.767Z,12.40
2018-08-04T16:28:33.944Z,12.80
2018-08-04T16:33:36.730Z,12.80
2018-08-04T16:36:04.948Z,13.20
2018-08-04T16:38:33.104Z,13.40
2018-08-04T16:41:01.292Z,13.50
2018-08-04T16:43:29.436Z,13.60
2018-08-04T16:45:57.804Z,13.20
2018-08-04T16:48:25.969Z,13.20
2018-08-04T16:50:54.352Z,12.80
2018-08-04T16:53:22.544Z,12.20
2018-08-04T16:55:50.685Z,12.80
2018-08-04T16:58:18.969Z,12.90
2018-08-04T17:00:47.466Z,12.90
2018-08-04T17:03:15.633Z,13.30
2018-08-04T17:05:43.773Z,14.20
2018-08-04T17:08:11.949Z,14.50
2018-08-04T17:10:40.132Z,15.00
2018-08-04T17:13:08.265Z,15.00
2018-08-04T17:15:36.460Z,14.90
2018-08-04T17:18:04.856Z,14.60
2018-08-04T17:20:33.062Z,14.70
2018-08-04T17:23:01.253Z,14.80
2018-08-04T17:25:29.534Z,16.00
2018-08-04T17:27:57.726Z,16.50
2018-08-04T17:30:25.873Z,16.70
2018-08-04T17:32:54.337Z,16.90
2018-08-04T17:35:22.538Z,17.40
2018-08-04T17:37:50.701Z,17.40
2018-08-04T17:40:18.969Z,17.20
2018-08-04T17:42:47.118Z,17.50
2018-08-04T17:45:15.287Z,17.60
2018-08-04T17:47:43.474Z,17.60
2018-08-04T17:50:11.658Z,17.80
2018-08-04T17:52:39.832Z,17.90
2018-08-04T17:55:08.025Z,17.90
2018-08-04T17:57:36.195Z,18.10
2018-08-04T18:00:04.704Z,18.20
2018-08-04T18:02:32.919Z,18.40
2018-08-04T18:05:01.119Z,18.50
2018-08-04T18:07:29.253Z,18.60
2018-08-04T18:09:57.671Z,18.50
2018-08-04T18:12:25.818Z,18.60
2018-08-04T18:14:54.016Z,19.20
2018-08-04T18:17:22.192Z,18.70
2018-08-04T18:19:50.598Z,18.80
2018-08-04T18:22:18.762Z,18.80
2018-08-04T18:24:47.004Z,18.90
2018-08-04T18:27:15.197Z,18.60
2018-08-04T18:29:43.383Z,18.40
2018-08-04T18:32:12.196Z,18.70
2018-08-04T18:34:40.353Z,19.90
2018-08-04T18:37:08.498Z,20.30
2018-08-04T18:39:36.624Z,20.70
2018-08-04T18:42:04.820Z,21.20
2018-08-04T18:44:33.025Z,21.70
2018-08-04T18:47:01.194Z,22.60
2018-08-04T18:49:29.502Z,23.00
2018-08-04T18:51:57.707Z,23.60
2018-08-04T18:54:25.876Z,24.30
2018-08-04T18:56:54.120Z,24.80
2018-08-04T18:59:22.333Z,25.20
2018-08-04T19:01:50.469Z,25.70
2018-08-04T19:04:18.670Z,26.40
2018-08-04T19:06:46.806Z,27.00
2018-08-04T19:09:15.040Z,27.70
2018-08-04T19:11:43.503Z,28.30
2018-08-04T19:14:11.646Z,28.60
2018-08-04T19:16:39.773Z,29.10
2018-08-04T19:19:07.964Z,29.50
2018-08-04T19:21:36.106Z,30.00
2018-08-04T19:24:04.264Z,30.40
2018-08-04T19:26:32.436Z,31.30
2018-08-04T19:29:00.596Z,31.90
2018-08-04T19:31:28.780Z,32.20
2018-08-04T19:33:56.953Z,32.80
2018-08-04T19:36:25.400Z,33.10
2018-08-04T19:38:53.563Z,33.80
2018-08-04T19:41:21.718Z,34.20
2018-08-04T19:43:49.912Z,34.80
2018-08-04T19:46:18.071Z,35.30
2018-08-04T19:48:46.245Z,35.60
2018-08-04T19:51:14.388Z,36.10
2018-08-04T19:53:42.567Z,36.30
2018-08-04T19:56:10.724Z,36.50
2018-08-04T19:58:38.935Z,36.80
2018-08-04T20:01:07.064Z,37.00
2018-08-04T20:03:35.317Z,37.10
2018-08-04T20:06:03.501Z,37.50
2018-08-04T20:08:31.871Z,37.30
2018-08-04T20:11:00.320Z,37.40
2018-08-04T20:13:28.643Z,37.40
2018-08-04T20:15:56.836Z,37.30
2018-08-04T20:18:24.983Z,37.20
2018-08-04T20:20:53.146Z,37.50
2018-08-04T20:23:21.280Z,37.80
2018-08-04T20:25:49.421Z,38.10
2018-08-04T20:28:17.583Z,38.30
2018-08-04T20:30:45.772Z,38.60
2018-08-04T20:33:13.981Z,38.70
2018-08-04T20:35:42.120Z,38.90
2018-08-04T20:38:10.255Z,39.10
2018-08-04T20:40:38.633Z,40.10
2018-08-04T20:43:06.773Z,39.50
2018-08-04T20:45:34.939Z,39.90
2018-08-04T20:48:03.123Z,40.30
2018-08-04T20:50:31.265Z,40.40
2018-08-04T20:52:59.503Z,40.90
2018-08-04T20:55:27.588Z,41.40
2018-08-04T20:57:55.763Z,41.60
2018-08-04T21:00:23.892Z,41.80
2018-08-04T21:02:52.027Z,42.30
2018-08-04T21:05:20.243Z,42.40
2018-08-04T21:07:48.413Z,42.60
2018-08-04T21:10:16.549Z,42.80
2018-08-04T21:12:44.782Z,42.70
2018-08-04T21:15:12.930Z,43.00
2018-08-04T21:17:41.077Z,43.20
2018-08-04T21:20:09.260Z,43.70
2018-08-04T21:22:37.529Z,44.00
2018-08-04T21:25:05.706Z,44.30
2018-08-04T21:27:33.875Z,44.80
2018-08-04T21:30:02.027Z,45.10
2018-08-04T21:32:30.180Z,45.40
2018-08-04T21:34:58.340Z,46.00
2018-08-04T21:37:26.465Z,45.90
2018-08-04T21:39:54.626Z,46.80
2018-08-04T21:42:23.353Z,47.20
2018-08-04T21:44:51.448Z,47.50
2018-08-04T21:47:19.588Z,47.50
2018-08-04T21:49:47.760Z,47.60
2018-08-04T21:52:15.925Z,48.30
2018-08-04T21:54:44.091Z,49.70
2018-08-04T21:57:12.227Z,49.30
2018-08-04T21:59:40.375Z,48.70
2018-08-04T22:02:08.735Z,49.50
2018-08-04T22:04:36.736Z,50.40
2018-08-04T22:07:42.229Z,50.50
2018-08-04T22:10:11.179Z,51.10
2018-08-04T22:12:39.439Z,51.90
2018-08-04T22:15:07.908Z,52.40
2018-08-04T22:17:36.451Z,52.70
2018-08-04T22:20:05.507Z,53.40
2018-08-04T22:22:33.648Z,53.60
2018-08-04T22:25:01.980Z,54.10
2018-08-04T22:27:30.112Z,54.70
2018-08-04T22:29:58.334Z,55.60
2018-08-04T22:32:26.416Z,56.60
2018-08-04T22:34:54.556Z,56.80
2018-08-04T22:37:22.708Z,57.50
2018-08-04T22:39:51.022Z,58.10
2018-08-04T22:42:19.169Z,58.40
2018-08-04T22:45:01.524Z,59.10
2018-08-04T22:47:29.665Z,59.00
2018-08-04T22:49:57.789Z,59.60
2018-08-04T22:52:25.940Z,60.00
2018-08-04T22:54:54.080Z,60.00
2018-08-04T22:57:22.261Z,60.70
2018-08-04T22:59:50.408Z,60.70
2018-08-04T23:02:18.544Z,61.20
2018-08-04T23:04:46.697Z,61.40
2018-08-04T23:07:14.836Z,62.00
2018-08-04T23:09:42.985Z,62.10
2018-08-04T23:12:11.100Z,62.40
2018-08-04T23:14:39.271Z,62.80
2018-08-04T23:17:07.436Z,63.10
2018-08-04T23:19:35.570Z,63.30
2018-08-04T23:22:03.748Z,63.30
2018-08-04T23:24:31.876Z,63.20
2018-08-04T23:27:00.040Z,63.60
2018-08-04T23:29:28.155Z,64.30
2018-08-04T23:31:56.306Z,64.50
2018-08-04T23:34:24.449Z,64.80
2018-08-04T23:36:52.571Z,64.90
2018-08-04T23:39:20.724Z,65.30
2018-08-04T23:41:48.847Z,65.30
2018-08-04T23:44:16.992Z,65.60
2018-08-04T23:46:45.160Z,65.90
2018-08-04T23:49:13.299Z,66.40
2018-08-04T23:51:41.426Z,66.60
2018-08-04T23:54:09.575Z,66.60
2018-08-04T23:56:37.712Z,67.20
2018-08-04T23:59:05.855Z,67.20
